createdAt,value
2023-04-22T00:04:35.376Z,28.90
2023-04-22T00:09:41.104Z,44.10
2023-04-22T00:14:43.774Z,59.28
2023-04-22T00:19:47.799Z,51.10
2023-04-22T00:24:50.201Z,39.65
2023-04-22T00:29:52.746Z,33.78
2023-04-22T00:34:56.223Z,31.63
2023-04-22T00:39:58.714Z,30.08
2023-04-22T00:45:01.791Z,32.15
2023-04-22T00:50:05.223Z,35.72
2023-04-22T01:00:10.781Z,33.47
2023-04-22T01:05:13.897Z,41.37
2023-04-22T01:10:18.895Z,53.53
2023-04-22T01:15:21.888Z,43.47
2023-04-22T01:20:24.658Z,46.83
2023-04-22T01:25:27.518Z,38.97
2023-04-22T01:30:30.077Z,40.93
2023-04-22T01:35:37.317Z,40.22
2023-04-22T01:40:40.475Z,32.95
2023-04-22T01:45:43.067Z,33.53
2023-04-22T01:50:45.880Z,35.35
2023-04-22T01:55:49.557Z,37.05
2023-04-22T02:00:54.145Z,37.75
2023-04-22T02:05:57.012Z,30.58
2023-04-22T02:11:01.232Z,33.60
2023-04-22T02:16:04.313Z,32.78
2023-04-22T02:21:06.806Z,32.97
2023-04-22T02:26:13.471Z,30.83
2023-04-22T02:31:17.332Z,44.33
2023-04-22T02:36:19.836Z,32.77
2023-04-22T02:41:22.966Z,26.33
2023-04-22T02:46:25.767Z,37.40
2023-04-22T02:51:28.397Z,39.17
2023-04-22T02:56:31.757Z,41.73
2023-04-22T03:01:34.441Z,37.75
2023-04-22T03:06:39.787Z,45.35
2023-04-22T03:11:42.274Z,44.47
2023-04-22T03:16:44.909Z,47.10
2023-04-22T03:21:50.286Z,41.17
2023-04-22T03:26:53.642Z,30.58
2023-04-22T03:31:59.182Z,38.47
2023-04-22T03:37:01.895Z,35.45
2023-04-22T03:42:04.841Z,25.23
2023-04-22T03:47:09.062Z,34.88
2023-04-22T03:52:19.257Z,51.83
2023-04-22T03:57:30.796Z,41.97
2023-04-22T04:02:35.249Z,42.60
2023-04-22T04:07:38.759Z,43.05
2023-04-22T04:12:42.408Z,45.83
2023-04-22T04:17:46.405Z,52.33
2023-04-22T04:22:50.005Z,52.88
2023-04-22T04:27:52.689Z,49.53
2023-04-22T04:32:55.389Z,52.07
2023-04-22T04:37:59.626Z,49.40
2023-04-22T04:43:04.917Z,54.92
2023-04-22T04:48:16.929Z,51.60
2023-04-22T04:53:26.594Z,37.80
2023-04-22T04:58:30.489Z,26.40
2023-04-22T05:04:00.360Z,23.63
2023-04-22T05:09:05.025Z,24.15
2023-04-22T05:14:07.688Z,19.57
2023-04-22T05:19:16.259Z,19.45
2023-04-22T05:24:19.746Z,18.75
2023-04-22T05:29:22.360Z,22.20
2023-04-22T05:34:24.996Z,19.37
2023-04-22T05:39:30.142Z,20.63
2023-04-22T05:44:35.143Z,17.88
2023-04-22T05:49:37.909Z,18.93
2023-04-22T05:55:07.035Z,17.38
2023-04-22T06:05:15.751Z,16.60
2023-04-22T06:10:19.619Z,18.38
2023-04-22T06:15:22.196Z,16.35
2023-04-22T06:20:26.180Z,15.07
2023-04-22T06:25:29.939Z,17.02
2023-04-22T06:30:32.823Z,17.20
2023-04-22T06:35:35.879Z,17.58
2023-04-22T06:40:38.495Z,13.45
2023-04-22T06:46:03.673Z,23.27
2023-04-22T06:51:15.165Z,17.98
2023-04-22T06:56:17.831Z,15.75
2023-04-22T07:01:20.542Z,16.13
2023-04-22T07:11:28.504Z,14.40
2023-04-22T07:16:39.128Z,18.75
2023-04-22T07:21:49.381Z,12.48
2023-04-22T07:26:54.717Z,12.65
2023-04-22T07:31:58.017Z,13.75
2023-04-22T07:37:00.545Z,12.80
2023-04-22T07:42:03.517Z,13.52
2023-04-22T07:47:07.971Z,15.50
2023-04-22T07:52:13.169Z,12.63
2023-04-22T07:57:16.858Z,17.50
2023-04-22T08:02:19.405Z,16.13
2023-04-22T08:12:28.049Z,15.68
2023-04-22T08:17:30.660Z,14.90
2023-04-22T08:22:33.565Z,14.63
2023-04-22T08:27:37.921Z,12.57
2023-04-22T08:32:40.456Z,12.32
2023-04-22T08:37:43.240Z,11.82
2023-04-22T08:42:45.800Z,11.68
2023-04-22T08:52:53.807Z,12.13
2023-04-22T09:03:01.992Z,12.38
2023-04-22T09:08:04.689Z,7.57
2023-04-22T09:13:07.913Z,8.27
2023-04-22T09:18:10.818Z,9.65
2023-04-22T09:23:14.006Z,10.80
2023-04-22T09:28:20.235Z,9.15
2023-04-22T09:33:25.707Z,8.35
2023-04-22T09:38:31.948Z,7.43
2023-04-22T09:43:34.417Z,9.70
2023-04-22T09:53:45.044Z,9.90
2023-04-22T09:58:52.621Z,6.43
2023-04-22T10:03:55.646Z,7.82
2023-04-22T10:08:59.755Z,11.13
2023-04-22T10:14:03.698Z,8.88
2023-04-22T10:19:07.790Z,7.63
2023-04-22T10:24:18.826Z,10.02
2023-04-22T10:33:24.137Z,9.23
2023-04-22T10:38:27.434Z,10.48
2023-04-22T10:43:46.801Z,12.23
2023-04-22T10:48:50.921Z,9.45
2023-04-22T10:53:55.088Z,11.52
2023-04-22T10:58:57.568Z,8.38
2023-04-22T11:09:24.733Z,10.30
2023-04-22T11:14:30.448Z,7.20
2023-04-22T11:19:33.065Z,8.73
2023-04-22T11:24:36.969Z,8.77
2023-04-22T11:30:21.008Z,9.60
2023-04-22T11:35:27.534Z,10.80
2023-04-22T11:40:34.468Z,8.05
2023-04-22T11:45:40.001Z,17.88
2023-04-22T11:50:44.891Z,9.55
2023-04-22T11:55:53.148Z,13.80
2023-04-22T12:00:58.500Z,10.57
2023-04-22T12:06:03.305Z,10.35
2023-04-22T12:11:07.953Z,7.03
2023-04-22T12:16:12.285Z,7.90
2023-04-22T12:21:17.127Z,7.35
2023-04-22T12:26:25.412Z,8.93
2023-04-22T12:31:30.760Z,8.07
2023-04-22T12:36:33.632Z,8.02
2023-04-22T12:41:37.839Z,10.55
2023-04-22T12:46:41.437Z,9.27
2023-04-22T12:51:48.342Z,7.32
2023-04-22T12:56:52.338Z,6.85
2023-04-22T13:02:01.003Z,6.78
2023-04-22T13:07:06.370Z,10.55
2023-04-22T13:12:09.151Z,7.20
2023-04-22T13:17:12.020Z,5.68
2023-04-22T13:22:14.551Z,5.30
2023-04-22T13:32:19.885Z,7.78
2023-04-22T13:42:24.784Z,7.30
2023-04-22T13:47:27.338Z,7.68
2023-04-22T13:52:30.024Z,7.20
2023-04-22T13:57:35.506Z,6.72
2023-04-22T14:02:38.147Z,7.25
2023-04-22T14:07:40.738Z,7.97
2023-04-22T14:17:49.876Z,5.75
2023-04-22T14:22:52.485Z,6.28
2023-04-22T14:27:55.011Z,5.00
2023-04-22T14:32:58.311Z,4.80
2023-04-22T14:38:01.786Z,5.88
2023-04-22T14:43:06.650Z,6.03
2023-04-22T14:48:09.217Z,6.03
2023-04-22T14:53:11.803Z,10.27
2023-04-22T14:58:14.389Z,5.45
2023-04-22T15:03:19.607Z,5.63
2023-04-22T15:08:26.820Z,7.53
2023-04-22T15:13:31.876Z,6.95
2023-04-22T15:18:34.497Z,8.90
2023-04-22T15:23:37.009Z,7.22
2023-04-22T15:28:40.845Z,13.02
2023-04-22T15:33:43.579Z,8.05
2023-04-22T15:38:46.065Z,6.78
2023-04-22T15:43:48.672Z,6.65
2023-04-22T15:48:53.183Z,19.58
2023-04-22T15:53:57.705Z,19.15
2023-04-22T15:59:00.321Z,10.77
2023-04-22T16:04:04.637Z,7.35
2023-04-22T16:09:08.937Z,13.75
2023-04-22T16:14:12.482Z,13.77
2023-04-22T16:19:17.766Z,12.93
2023-04-22T16:24:21.026Z,8.20
2023-04-22T16:29:23.581Z,10.82
2023-04-22T16:34:26.010Z,8.57
2023-04-22T16:39:28.487Z,10.23
2023-04-22T16:44:31.052Z,7.50
2023-04-22T16:49:33.565Z,8.35
2023-04-22T16:54:36.282Z,10.88
2023-04-22T16:59:39.383Z,41.38
2023-04-22T17:04:42.076Z,106.88
2023-04-22T17:09:44.884Z,373.92
2023-04-22T17:14:47.823Z,299.90
2023-04-22T17:19:50.819Z,335.85
2023-04-22T17:24:53.408Z,141.00
2023-04-22T17:29:56.599Z,66.78
2023-04-22T17:35:00.875Z,81.50
2023-04-22T17:40:04.959Z,118.07
2023-04-22T17:45:08.268Z,44.90
2023-04-22T17:50:13.203Z,19.20
2023-04-22T17:55:16.044Z,21.25
2023-04-22T18:00:19.103Z,59.97
2023-04-22T18:05:23.281Z,47.20
2023-04-22T18:10:25.773Z,89.20
2023-04-22T18:15:28.562Z,79.50
2023-04-22T18:20:31.312Z,84.55
2023-04-22T18:25:33.815Z,94.07
2023-04-22T18:30:36.400Z,69.27
2023-04-22T18:35:39.057Z,83.00
2023-04-22T18:40:41.750Z,52.45
2023-04-22T18:45:44.745Z,36.72
2023-04-22T18:50:47.302Z,26.42
2023-04-22T18:55:50.266Z,24.23
2023-04-22T19:00:53.191Z,45.50
2023-04-22T19:05:55.711Z,41.47
2023-04-22T19:11:00.123Z,41.13
2023-04-22T19:16:02.743Z,33.58
2023-04-22T19:21:07.189Z,29.70
2023-04-22T19:26:10.090Z,29.10
2023-04-22T19:31:13.508Z,31.65
2023-04-22T19:36:22.283Z,28.98
2023-04-22T19:41:25.094Z,29.08
2023-04-22T19:46:27.831Z,31.17
2023-04-22T19:51:33.294Z,28.90
2023-04-22T20:01:44.633Z,59.70
2023-04-22T20:07:02.978Z,57.92
2023-04-22T20:12:06.474Z,49.95
2023-04-22T20:22:14.786Z,47.22
2023-04-22T20:27:17.644Z,39.50
2023-04-22T20:32:20.422Z,39.00
2023-04-22T20:37:25.848Z,36.80
2023-04-22T20:42:29.187Z,36.60
2023-04-22T20:47:32.063Z,38.10
2023-04-22T20:52:35.641Z,39.80
2023-04-22T20:57:39.964Z,42.45
2023-04-22T21:02:42.810Z,36.08
2023-04-22T21:07:47.202Z,29.50
2023-04-22T21:12:50.186Z,28.30
2023-04-22T21:17:56.757Z,32.67
2023-04-22T21:23:00.217Z,28.08
2023-04-22T21:28:02.914Z,27.92
2023-04-22T21:33:05.550Z,28.23
2023-04-22T21:38:09.149Z,31.77
2023-04-22T21:43:11.858Z,33.47
2023-04-22T21:48:14.543Z,28.33
2023-04-22T21:53:22.010Z,32.30
2023-04-22T21:58:29.426Z,34.83
2023-04-22T22:03:32.206Z,41.88
2023-04-22T22:08:51.766Z,36.97
2023-04-22T22:14:14.854Z,38.97
2023-04-22T22:19:17.315Z,40.83
2023-04-22T22:24:19.895Z,38.47
2023-04-22T22:29:22.368Z,37.88
2023-04-22T22:34:24.845Z,47.42
2023-04-22T22:39:27.602Z,39.63
2023-04-22T22:44:30.483Z,38.47
2023-04-22T22:49:33.536Z,35.57
2023-04-22T22:54:40.559Z,27.80
2023-04-22T22:59:43.321Z,32.35
2023-04-22T23:04:46.166Z,30.20
2023-04-22T23:09:48.827Z,23.70
2023-04-22T23:14:51.397Z,25.10
2023-04-22T23:19:54.946Z,26.00
2023-04-22T23:24:57.661Z,27.58
2023-04-22T23:30:00.812Z,22.70
2023-04-22T23:35:04.282Z,30.85
2023-04-22T23:40:07.633Z,26.23
2023-04-22T23:45:10.702Z,26.17
2023-04-22T23:50:14.335Z,26.55
2023-04-22T23:55:17.168Z,25.65
